Time;durP1;ratioP1;P1;durP2;ratioP2;P2;SDS_P1;SDS_P2;PMS_P1;PMS_P2;Temp;Humidity;BMP_temperature;BMP_pressure;BME280_temperature;BME280_humidity;BME280_pressure;Samples;Min_cycle;Max_cycle;Signal;HPM_P1;HPM_P2
2022/04/20 00:02:20;;;;;;;;;;;;;;;6.36;61.98;99307.31;4340356;33;34761;-90
2022/04/20 00:04:48;;;;;;;;;;;;;;;6.34;62.22;99300.47;4346886;33;33963;-90
2022/04/20 00:07:17;;;;;;;;;;;;;;;6.34;62.28;99298.75;4341180;33;33909;-90
2022/04/20 00:09:46;;;;;;;;;;;;;;;6.40;61.90;99297.84;4342897;33;34888;-89
2022/04/20 00:12:15;;;;;;;;;;;;;;;6.25;62.80;99306.47;4341386;33;33803;-90
2022/04/20 00:14:43;;;;;;;;;;;;;;;6.35;62.15;99300.44;4339057;33;32834;-92
2022/04/20 00:17:12;;;;;;;;;;;;;;;6.30;62.20;99298.75;4340236;33;33352;-91
2022/04/20 00:19:40;;;;;;;;;;;;;;;6.35;61.79;99304.75;4341968;33;35057;-90
2022/04/20 00:22:09;;;;;;;;;;;;;;;6.32;61.87;99303.03;4338247;33;34102;-92
2022/04/20 00:24:37;;;;;;;;;;;;;;;6.21;62.26;99304.78;4340866;33;33679;-91
2022/04/20 00:27:08;;;;;;;;;;;;;;;6.30;62.11;99299.59;4344636;33;35223;-90
2022/04/20 00:29:38;;;;;;;;;;;;;;;6.28;61.94;99306.50;4345609;33;34844;-90
2022/04/20 00:32:08;;;;;;;;;;;;;;;6.24;62.53;99304.78;4340921;33;33557;-90
2022/04/20 00:34:36;;;;;;;;;;;;;;;6.36;62.12;99302.16;4342067;33;32895;-91
2022/04/20 00:37:05;;;;;;;;;;;;;;;6.27;62.70;99302.19;4339009;33;34171;-91
2022/04/20 00:39:34;;;;;;;;;;;;;;;6.25;62.67;99297.91;4346481;33;34192;-90
2022/04/20 00:42:02;;;;;;;;;;;;;;;6.45;62.20;99300.41;4341282;33;34067;-90
2022/04/20 00:44:36;;;;;;;;;;;;;;;6.13;63.13;99297.06;4340089;33;33211;-91
2022/04/20 00:47:04;;;;;;;;;;;;;;;6.52;61.85;99302.97;4339879;33;34719;-91
2022/04/20 00:49:33;;;;;;;;;;;;;;;6.40;62.14;99301.31;4341948;33;34097;-90
2022/04/20 00:52:02;;;;;;;;;;;;;;;6.37;61.79;99303.03;4341764;33;33677;-91
2022/04/20 00:54:31;;;;;;;;;;;;;;;6.06;62.88;99308.22;4345076;33;33034;-92
2022/04/20 00:57:00;;;;;;;;;;;;;;;6.29;62.38;99313.34;4341376;33;34757;-91
2022/04/20 00:59:30;;;;;;;;;;;;;;;6.48;61.42;99314.16;4342141;33;34823;-90
2022/04/20 01:01:59;;;;;;;;;;;;;;;6.18;62.37;99309.94;4341045;33;34730;-90
2022/04/20 01:04:28;;;;;;;;;;;;;;;6.40;61.77;99306.47;4340765;33;33548;-89
2022/04/20 01:06:59;;;;;;;;;;;;;;;6.37;61.68;99315.91;4345234;33;34209;-92
2022/04/20 01:09:28;;;;;;;;;;;;;;;6.09;62.14;99321.13;4340865;33;34490;-91
2022/04/20 01:11:57;;;;;;;;;;;;;;;6.19;62.03;99311.66;4341182;33;33296;-90
2022/04/20 01:14:26;;;;;;;;;;;;;;;6.32;61.64;99312.47;4339047;33;32621;-90
2022/04/20 01:16:54;;;;;;;;;;;;;;;6.01;62.59;99317.66;4338514;33;34587;-90
2022/04/20 01:19:31;;;;;;;;;;;;;;;6.25;61.63;99319.34;4346995;33;34961;-90
2022/04/20 01:22:02;;;;;;;;;;;;;;;5.98;62.50;99315.97;4344815;33;33781;-90
2022/04/20 01:24:31;;;;;;;;;;;;;;;6.19;61.76;99314.22;4341869;33;33105;-90
2022/04/20 01:27:00;;;;;;;;;;;;;;;6.09;61.88;99315.97;4343125;33;34659;-90
2022/04/20 01:29:29;;;;;;;;;;;;;;;6.00;61.90;99320.25;4342711;33;34214;-90
2022/04/20 01:31:59;;;;;;;;;;;;;;;5.87;62.22;99324.50;4342345;33;33937;-91
2022/04/20 01:34:28;;;;;;;;;;;;;;;5.93;62.04;99322.78;4340599;33;34058;-91
2022/04/20 01:36:57;;;;;;;;;;;;;;;5.69;62.80;99323.66;4345924;33;33528;-92
2022/04/20 01:39:27;;;;;;;;;;;;;;;5.71;62.79;99321.09;4339502;33;32282;-91
2022/04/20 01:41:56;;;;;;;;;;;;;;;5.81;62.88;99333.09;4337610;33;34073;-90
2022/04/20 01:44:25;;;;;;;;;;;;;;;5.81;62.84;99327.94;4342253;33;33502;-91
2022/04/20 01:46:54;;;;;;;;;;;;;;;5.96;62.19;99327.97;4348578;33;34727;-90
2022/04/20 01:49:22;;;;;;;;;;;;;;;5.62;63.07;99323.66;4337742;33;34452;-91
2022/04/20 01:51:54;;;;;;;;;;;;;;;5.92;62.54;99327.94;4342855;33;33812;-90
2022/04/20 01:54:23;;;;;;;;;;;;;;;5.87;62.12;99322.81;4341903;33;32380;-89
2022/04/20 01:56:53;;;;;;;;;;;;;;;5.70;62.52;99322.81;4341913;33;33564;-91
2022/04/20 01:59:23;;;;;;;;;;;;;;;5.46;63.78;99318.50;4344810;33;34207;-91
2022/04/20 02:04:38;;;;;;;;;;;;;;;5.65;62.90;99321.06;4342087;33;34169;-89
2022/04/20 02:07:06;;;;;;;;;;;;;;;5.45;63.81;99319.34;4340404;33;34029;-91
2022/04/20 02:09:35;;;;;;;;;;;;;;;5.77;63.03;99319.38;4342127;33;33810;-91
2022/04/20 02:12:07;;;;;;;;;;;;;;;5.58;63.73;99312.47;4343286;33;34637;-90
2022/04/20 02:14:37;;;;;;;;;;;;;;;5.69;63.15;99313.34;4345564;33;33127;-92
2022/04/20 02:17:06;;;;;;;;;;;;;;;5.40;63.96;99315.91;4343184;33;34980;-90
2022/04/20 02:19:37;;;;;;;;;;;;;;;5.72;63.35;99315.06;4340634;33;34983;-91
2022/04/20 02:22:05;;;;;;;;;;;;;;;5.69;63.49;99318.50;4341825;33;34130;-91
2022/04/20 02:24:34;;;;;;;;;;;;;;;5.41;64.69;99315.03;4340087;33;33787;-90
2022/04/20 02:27:03;;;;;;;;;;;;;;;5.69;63.77;99318.50;4342907;33;33741;-89
2022/04/20 02:29:33;;;;;;;;;;;;;;;5.65;63.74;99318.50;4347254;33;35034;-90
2022/04/20 02:32:01;;;;;;;;;;;;;;;5.65;63.98;99318.50;4342705;33;34231;-91
2022/04/20 02:34:30;;;;;;;;;;;;;;;5.78;63.59;99322.81;4339535;33;33992;-90
2022/04/20 02:36:59;;;;;;;;;;;;;;;5.87;62.82;99320.25;4342605;33;34629;-91
2022/04/20 02:39:27;;;;;;;;;;;;;;;5.89;62.72;99318.50;4343373;33;34101;-91
2022/04/20 02:41:56;;;;;;;;;;;;;;;5.90;62.83;99315.09;4345627;33;33756;-90
2022/04/20 02:44:24;;;;;;;;;;;;;;;5.94;62.81;99319.41;4340553;33;32825;-90
2022/04/20 02:46:54;;;;;;;;;;;;;;;6.00;62.58;99321.13;4341675;33;33881;-90
2022/04/20 02:49:23;;;;;;;;;;;;;;;5.90;62.60;99321.94;4341786;33;34127;-90
2022/04/20 02:51:51;;;;;;;;;;;;;;;5.92;62.80;99318.53;4340392;33;34706;-91
2022/04/20 02:54:20;;;;;;;;;;;;;;;6.00;62.54;99321.13;4345324;33;33735;-90
2022/04/20 02:56:49;;;;;;;;;;;;;;;5.94;62.92;99315.97;4342055;33;34509;-91
2022/04/20 02:59:17;;;;;;;;;;;;;;;5.95;62.80;99310.81;4343629;33;34226;-90
2022/04/20 03:01:47;;;;;;;;;;;;;;;5.97;62.51;99321.97;4343269;33;34208;-91
2022/04/20 03:04:18;;;;;;;;;;;;;;;6.06;62.16;99315.94;4343388;33;34011;-90
2022/04/20 03:06:46;;;;;;;;;;;;;;;6.01;62.35;99324.53;4347934;33;34167;-90
2022/04/20 03:09:15;;;;;;;;;;;;;;;5.86;62.69;99321.09;4344601;33;33583;-90
2022/04/20 03:11:45;;;;;;;;;;;;;;;5.81;62.72;99329.66;4342868;33;34117;-90
2022/04/20 03:14:14;;;;;;;;;;;;;;;5.73;63.16;99324.53;4342880;33;33040;-91
2022/04/20 03:16:43;;;;;;;;;;;;;;;5.94;62.10;99327.12;4343382;33;33738;-92
2022/04/20 03:19:12;;;;;;;;;;;;;;;6.06;61.36;99331.41;4343531;33;34139;-89
2022/04/20 03:21:42;;;;;;;;;;;;;;;5.78;62.39;99327.97;4346055;33;34783;-90
2022/04/20 03:24:10;;;;;;;;;;;;;;;5.73;62.50;99327.09;4331607;33;33350;-90
2022/04/20 03:26:40;;;;;;;;;;;;;;;5.84;61.90;99321.94;4342329;33;33282;-89
2022/04/20 03:29:09;;;;;;;;;;;;;;;5.72;62.30;99330.50;4341753;32;34847;-92
2022/04/20 03:31:38;;;;;;;;;;;;;;;5.84;61.57;99335.66;4344972;33;34816;-90
2022/04/20 03:34:07;;;;;;;;;;;;;;;5.61;62.14;99337.37;4341778;33;33553;-90
2022/04/20 03:36:36;;;;;;;;;;;;;;;5.74;61.91;99333.94;4341561;33;34783;-92
2022/04/20 03:39:06;;;;;;;;;;;;;;;5.79;61.78;99337.37;4341899;33;33876;-90
2022/04/20 03:41:34;;;;;;;;;;;;;;;5.96;61.22;99338.25;4338966;33;35900;-92
2022/04/20 03:44:05;;;;;;;;;;;;;;;5.62;62.69;99341.66;4342957;33;33213;-89
2022/04/20 03:46:34;;;;;;;;;;;;;;;5.72;62.60;99343.38;4346081;33;33757;-91
2022/04/20 03:49:02;;;;;;;;;;;;;;;5.81;62.58;99343.41;4342817;33;34302;-91
2022/04/20 03:51:32;;;;;;;;;;;;;;;5.88;62.49;99346.84;4341530;33;33677;-90
2022/04/20 03:54:01;;;;;;;;;;;;;;;5.69;62.95;99345.97;4340767;33;33031;-92
2022/04/20 03:57:03;;;;;;;;;;;;;;;5.81;62.33;99347.69;4339978;33;33934;-90
2022/04/20 03:59:21;;;;;;;;;;;;;;;5.69;62.86;99348.53;4331813;33;33120;-90
2022/04/20 04:01:51;;;;;;;;;;;;;;;5.75;62.83;99344.25;4343104;33;35157;-90
2022/04/20 04:04:20;;;;;;;;;;;;;;;5.83;62.60;99351.13;4340653;33;32979;-91
2022/04/20 04:06:49;;;;;;;;;;;;;;;5.90;62.43;99350.28;4341523;33;34708;-90
2022/04/20 04:09:18;;;;;;;;;;;;;;;5.87;62.73;99348.56;4343221;33;34180;-92
2022/04/20 04:11:48;;;;;;;;;;;;;;;5.80;62.91;99348.53;4342295;33;34146;-90
2022/04/20 04:14:17;;;;;;;;;;;;;;;5.88;62.91;99347.69;4346601;33;33356;-91
2022/04/20 04:16:45;;;;;;;;;;;;;;;6.05;62.28;99352.87;4340892;33;34560;-90
2022/04/20 04:19:14;;;;;;;;;;;;;;;5.98;62.63;99351.16;4342643;32;33941;-90
2022/04/20 04:21:43;;;;;;;;;;;;;;;6.02;62.71;99355.44;4341247;33;33767;-91
2022/04/20 04:24:34;;;;;;;;;;;;;;;6.04;62.54;99365.72;4340023;33;33371;-91
2022/04/20 04:27:03;;;;;;;;;;;;;;;6.02;62.95;99360.59;4344941;33;33915;-92
2022/04/20 04:29:32;;;;;;;;;;;;;;;6.11;62.95;99364.88;4345313;32;34010;-92
2022/04/20 04:32:02;;;;;;;;;;;;;;;6.39;62.13;99371.72;4340908;33;33603;-90
2022/04/20 04:34:32;;;;;;;;;;;;;;;6.31;62.40;99376.03;4343188;33;33282;-92
2022/04/20 04:37:01;;;;;;;;;;;;;;;6.42;62.38;99381.16;4342446;33;33281;-92
2022/04/20 04:39:30;;;;;;;;;;;;;;;6.42;62.21;99376.00;4343204;33;34770;-91
2022/04/20 04:42:00;;;;;;;;;;;;;;;6.72;61.15;99371.69;4330457;33;32233;-90
2022/04/20 04:44:35;;;;;;;;;;;;;;;6.63;61.46;99377.69;4342204;33;33350;-90
2022/04/20 04:49:51;;;;;;;;;;;;;;;6.48;62.25;99386.31;4341599;33;33801;-91
2022/04/20 04:52:20;;;;;;;;;;;;;;;6.71;61.73;99378.53;4334017;33;34620;-93
2022/04/20 04:54:48;;;;;;;;;;;;;;;6.65;62.03;99385.44;4340596;33;33506;-92
2022/04/20 04:57:32;;;;;;;;;;;;;;;6.81;61.31;99382.81;4333296;33;32309;-91
2022/04/20 05:07:58;;;;;;;;;;;;;;;;;;;;;
2022/04/20 05:35:02;;;;;;;;;;;;;;;9.38;52.90;99397.16;4180336;34;33180;-91
2022/04/20 05:43:12;;;;;;;;;;;;;;;8.70;55.82;99406.59;4197550;33;34564;-91
2022/04/20 05:45:44;;;;;;;;;;;;;;;8.56;56.32;99411.03;4208762;33;33149;-91
2022/04/20 05:48:14;;;;;;;;;;;;;;;8.70;56.07;99404.00;4209590;33;34600;-90
2022/04/20 05:50:48;;;;;;;;;;;;;;;8.62;56.48;99398.03;4210027;34;33655;-93
2022/04/20 05:53:23;;;;;;;;;;;;;;;8.51;56.72;99399.00;4214976;34;34040;-90
2022/04/20 05:55:56;;;;;;;;;;;;;;;8.39;57.38;99406.00;4208382;34;33236;-89
2022/04/20 05:58:35;;;;;;;;;;;;;;;8.14;58.39;99406.16;4211054;34;34089;-93
2022/04/20 06:12:52;;;;;;;;;;;;;;;8.05;59.41;99391.63;4208374;33;35790;-92
2022/04/20 06:15:22;;;;;;;;;;;;;;;8.18;59.35;99391.50;4240484;33;33464;-91
2022/04/20 06:17:51;;;;;;;;;;;;;;;8.10;59.58;99397.59;4244559;33;34504;-90
2022/04/20 06:20:21;;;;;;;;;;;;;;;8.08;60.04;99396.75;4241777;33;32967;-90
2022/04/20 06:22:50;;;;;;;;;;;;;;;8.54;58.07;99395.53;4254686;33;34496;-89
2022/04/20 06:25:19;;;;;;;;;;;;;;;8.43;58.22;99393.06;4254025;33;34105;-90
2022/04/20 06:27:48;;;;;;;;;;;;;;;8.49;58.25;99399.87;4259185;33;33784;-90
2022/04/20 06:30:18;;;;;;;;;;;;;;;8.80;57.60;99392.69;4254265;33;33106;-90
2022/04/20 06:32:47;;;;;;;;;;;;;;;9.01;55.59;99390.72;4254494;33;33596;-91
2022/04/20 06:35:17;;;;;;;;;;;;;;;9.16;55.38;99394.00;4268910;33;34369;-92
2022/04/20 06:37:45;;;;;;;;;;;;;;;9.34;54.58;99395.47;4268373;33;34632;-90
2022/04/20 06:40:14;;;;;;;;;;;;;;;9.34;53.88;99385.13;4269119;33;32911;-89
2022/04/20 06:42:43;;;;;;;;;;;;;;;9.25;55.24;99382.66;4305609;33;34057;-92
2022/04/20 06:45:12;;;;;;;;;;;;;;;9.63;54.18;99388.19;4319772;32;34760;-91
2022/04/20 06:47:42;;;;;;;;;;;;;;;9.72;54.04;99380.31;4359164;32;34709;-89
2022/04/20 06:50:12;;;;;;;;;;;;;;;9.66;53.25;99382.97;4357730;32;32705;-91
2022/04/20 07:01:07;;;;;;;;;;;;;;;10.06;52.22;99372.00;4363239;32;34195;-90
2022/04/20 07:03:38;;;;;;;;;;;;;;;10.19;52.11;99368.31;4358459;32;32767;-90
2022/04/20 07:06:07;;;;;;;;;;;;;;;10.38;52.59;99376.69;4358748;32;33990;-91
2022/04/20 07:08:36;;;;;;;;;;;;;;;10.03;51.08;99375.50;4358393;32;34888;-90
2022/04/20 07:11:05;;;;;;;;;;;;;;;10.43;48.72;99367.06;4358593;32;33962;-90
2022/04/20 07:13:35;;;;;;;;;;;;;;;10.22;49.93;99374.31;4361754;32;33379;-89
2022/04/20 07:16:03;;;;;;;;;;;;;;;10.41;50.24;99371.44;4357903;32;33842;-89
2022/04/20 07:18:32;;;;;;;;;;;;;;;10.63;48.80;99374.50;4357864;32;34756;-88
2022/04/20 07:21:03;;;;;;;;;;;;;;;10.72;48.90;99369.13;4359705;32;34101;-91
2022/04/20 07:23:32;;;;;;;;;;;;;;;10.74;48.58;99369.13;4358251;32;34041;-88
2022/04/20 07:26:02;;;;;;;;;;;;;;;10.66;47.98;99367.53;4362882;32;34247;-90
2022/04/20 07:28:32;;;;;;;;;;;;;;;10.92;46.46;99362.69;4358086;32;33197;-90
2022/04/20 07:31:04;;;;;;;;;;;;;;;10.45;48.22;99367.91;4357782;32;34026;-90
2022/04/20 07:33:37;;;;;;;;;;;;;;;10.75;47.92;99369.09;4358280;32;34241;-89
2022/04/20 07:36:08;;;;;;;;;;;;;;;10.78;48.27;99373.38;4358060;32;34022;-88
2022/04/20 07:38:38;;;;;;;;;;;;;;;11.30;45.17;99369.69;4358824;32;34544;-88
2022/04/20 07:41:10;;;;;;;;;;;;;;;11.29;45.77;99370.59;4362874;32;32275;-90
2022/04/20 07:43:39;;;;;;;;;;;;;;;11.15;45.30;99368.28;4357890;32;34627;-90
2022/04/20 07:46:08;;;;;;;;;;;;;;;11.10;46.07;99370.97;4357407;32;33911;-88
2022/04/20 07:48:37;;;;;;;;;;;;;;;11.05;46.11;99364.19;4358420;32;34864;-88
2022/04/20 07:51:08;;;;;;;;;;;;;;;11.26;47.32;99366.34;4358385;32;33418;-88
2022/04/20 07:53:37;;;;;;;;;;;;;;;11.44;44.75;99372.88;4362993;32;33427;-88
2022/04/20 07:56:07;;;;;;;;;;;;;;;11.34;45.61;99371.34;4358359;32;35070;-88
2022/04/20 07:58:35;;;;;;;;;;;;;;;11.21;44.47;99375.09;4358769;32;33984;-88
2022/04/20 08:01:04;;;;;;;;;;;;;;;11.05;46.03;99378.00;4357953;32;33367;-88
2022/04/20 08:03:33;;;;;;;;;;;;;;;11.31;44.97;99363.63;4358169;32;34913;-88
2022/04/20 08:06:02;;;;;;;;;;;;;;;11.27;44.81;99369.78;4360333;32;33719;-89
2022/04/20 08:08:33;;;;;;;;;;;;;;;11.12;46.63;99360.56;4362764;32;34181;-89
2022/04/20 08:11:01;;;;;;;;;;;;;;;11.25;46.97;99355.97;4357730;32;32814;-91
2022/04/20 08:16:16;;;;;;;;;;;;;;;11.37;45.21;99360.91;4358004;32;33820;-87
2022/04/20 08:18:47;;;;;;;;;;;;;;;11.26;44.23;99355.94;4357985;32;34519;-90
2022/04/20 08:21:18;;;;;;;;;;;;;;;11.44;44.62;99356.44;4362677;32;33167;-90
2022/04/20 08:23:48;;;;;;;;;;;;;;;11.22;43.17;99353.44;4359910;32;34958;-88
2022/04/20 08:26:17;;;;;;;;;;;;;;;11.38;44.69;99349.62;4357187;32;33986;-88
2022/04/20 08:28:46;;;;;;;;;;;;;;;11.68;43.55;99345.47;4356916;32;33871;-90
2022/04/20 08:31:15;;;;;;;;;;;;;;;11.62;43.01;99344.75;4356947;32;33703;-88
2022/04/20 08:33:44;;;;;;;;;;;;;;;11.77;42.42;99341.81;4357590;32;33673;-90
2022/04/20 08:36:15;;;;;;;;;;;;;;;11.61;43.00;99341.31;4360670;32;34757;-88
2022/04/20 08:38:44;;;;;;;;;;;;;;;11.71;42.40;99342.78;4357163;32;33632;-89
2022/04/20 08:41:15;;;;;;;;;;;;;;;11.77;42.78;99341.81;4357762;32;33717;-88
2022/04/20 08:43:46;;;;;;;;;;;;;;;11.88;41.66;99341.59;4357969;32;34160;-90
2022/04/20 08:46:15;;;;;;;;;;;;;;;11.62;41.82;99342.16;4357850;32;33662;-88
2022/04/20 08:48:45;;;;;;;;;;;;;;;11.71;41.08;99344.56;4362555;32;33980;-89
2022/04/20 08:51:16;;;;;;;;;;;;;;;12.05;40.11;99338.56;4357444;32;32837;-89
2022/04/20 08:53:44;;;;;;;;;;;;;;;11.97;39.37;99340.53;4357290;32;34132;-90
2022/04/20 08:59:09;;;;;;;;;;;;;;;12.20;39.74;99335.56;4359760;32;33817;-89
2022/04/20 09:01:51;;;;;;;;;;;;;;;12.41;39.75;99330.72;4358589;32;33316;-93
2022/04/20 09:04:30;;;;;;;;;;;;;;;12.72;38.08;99321.19;4357640;32;33826;-90
2022/04/20 09:07:07;;;;;;;;;;;;;;;12.78;37.05;99330.56;4361885;32;34345;-91
2022/04/20 09:09:44;;;;;;;;;;;;;;;12.57;37.73;99330.28;4358277;32;33779;-89
2022/04/20 09:12:23;;;;;;;;;;;;;;;12.87;38.04;99324.25;4358067;32;33283;-90
2022/04/20 09:15:00;;;;;;;;;;;;;;;12.58;38.08;99338.94;4356155;32;33155;-91
2022/04/20 09:17:31;;;;;;;;;;;;;;;12.41;37.42;99335.94;4357746;32;34093;-91
2022/04/20 09:19:59;;;;;;;;;;;;;;;12.34;36.60;99340.44;4357183;32;34727;-89
2022/04/20 09:22:29;;;;;;;;;;;;;;;12.57;38.03;99338.09;4361851;32;32671;-88
2022/04/20 09:25:04;;;;;;;;;;;;;;;12.50;38.96;99333.09;4356901;32;33759;-90
2022/04/20 09:27:34;;;;;;;;;;;;;;;12.45;36.93;99325.41;4357122;32;34050;-89
2022/04/20 09:30:02;;;;;;;;;;;;;;;12.44;34.82;99336.69;4356922;32;33647;-90
2022/04/20 09:32:35;;;;;;;;;;;;;;;12.51;36.80;99326.97;4356916;32;32951;-90
2022/04/20 09:35:05;;;;;;;;;;;;;;;12.79;37.07;99314.91;4356905;32;33885;-88
2022/04/20 09:37:36;;;;;;;;;;;;;;;12.87;37.14;99314.69;4362045;32;35191;-89
2022/04/20 09:40:11;;;;;;;;;;;;;;;13.08;37.30;99313.22;4359422;32;33835;-88
2022/04/20 09:42:59;;;;;;;;;;;;;;;13.45;35.84;99317.34;4359336;32;33943;-91
2022/04/20 09:45:27;;;;;;;;;;;;;;;13.32;35.76;99309.06;4359454;32;34995;-88
2022/04/20 09:50:43;;;;;;;;;;;;;;;13.55;35.25;99316.16;4358719;32;33553;-91
2022/04/20 09:53:14;;;;;;;;;;;;;;;13.53;36.41;99317.09;4362276;32;32153;-87
2022/04/20 09:55:42;;;;;;;;;;;;;;;13.60;35.67;99310.81;4358928;32;34243;-89
2022/04/20 09:58:13;;;;;;;;;;;;;;;13.56;35.81;99315.28;4358800;32;34218;-88
2022/04/20 10:00:45;;;;;;;;;;;;;;;13.85;36.22;99313.50;4357726;32;34202;-89
2022/04/20 10:03:25;;;;;;;;;;;;;;;13.52;37.07;99308.44;4358820;32;32635;-89
2022/04/20 10:05:53;;;;;;;;;;;;;;;13.59;35.80;99314.31;4357789;32;34018;-91
2022/04/20 10:08:23;;;;;;;;;;;;;;;13.34;36.54;99306.44;4362459;32;33581;-91
2022/04/20 10:10:52;;;;;;;;;;;;;;;13.72;36.23;99307.81;4358839;32;33739;-91
2022/04/20 10:13:22;;;;;;;;;;;;;;;14.20;35.26;99304.47;4359122;32;34006;-89
2022/04/20 10:18:40;;;;;;;;;;;;;;;13.75;33.50;99299.91;4358742;32;34904;-89
2022/04/20 10:21:11;;;;;;;;;;;;;;;13.93;34.03;99308.88;4358368;32;34047;-88
2022/04/20 10:23:40;;;;;;;;;;;;;;;13.85;33.76;99305.69;4363460;32;33733;-90
2022/04/20 10:26:09;;;;;;;;;;;;;;;13.95;34.64;99299.25;4358654;32;34878;-88
2022/04/20 10:28:41;;;;;;;;;;;;;;;13.92;32.03;99299.34;4361063;32;34270;-91
2022/04/20 10:31:20;;;;;;;;;;;;;;;13.84;32.11;99298.75;4358173;32;33975;-89
2022/04/20 10:33:51;;;;;;;;;;;;;;;14.33;32.32;99298.84;4358807;32;34157;-89
2022/04/20 10:36:29;;;;;;;;;;;;;;;14.48;32.06;99296.56;4361030;32;34339;-90
2022/04/20 10:39:23;;;;;;;;;;;;;;;14.50;32.68;99288.69;4363481;32;34211;-89
2022/04/20 10:42:16;;;;;;;;;;;;;;;14.88;32.54;99287.31;4362097;32;33978;-88
2022/04/20 10:44:50;;;;;;;;;;;;;;;15.18;32.95;99289.66;4355671;32;33272;-88
2022/04/20 10:47:22;;;;;;;;;;;;;;;15.11;29.40;99296.03;4359256;32;34642;-89
2022/04/20 10:49:51;;;;;;;;;;;;;;;15.00;28.78;99300.81;4357413;32;34599;-88
2022/04/20 10:52:23;;;;;;;;;;;;;;;14.72;31.52;99288.78;4343850;33;34511;-88
2022/04/20 10:54:53;;;;;;;;;;;;;;;14.68;32.44;99287.19;4348755;33;35243;-88
2022/04/20 10:57:33;;;;;;;;;;;;;;;14.77;32.62;99276.41;4343473;32;33695;-89
2022/04/20 11:00:30;;;;;;;;;;;;;;;14.70;29.91;99283.59;4354272;32;34785;-91
2022/04/20 11:03:10;;;;;;;;;;;;;;;14.69;32.14;99286.25;4297007;32;34313;-91
2022/04/20 11:05:53;;;;;;;;;;;;;;;15.08;31.60;99276.09;4358057;32;32801;-90
2022/04/20 11:08:25;;;;;;;;;;;;;;;15.31;30.88;99275.19;4358496;32;34250;-91
2022/04/20 11:19:52;;;;;;;;;;;;;;;15.35;28.06;99270.72;4326952;33;32660;-90
2022/04/20 11:22:22;;;;;;;;;;;;;;;15.61;29.42;99276.66;4330361;33;34194;-88
2022/04/20 11:25:02;;;;;;;;;;;;;;;14.88;30.59;99273.38;4327007;33;33570;-89
2022/04/20 11:27:34;;;;;;;;;;;;;;;14.34;30.89;99272.69;4326607;33;32633;-88
2022/04/20 11:30:03;;;;;;;;;;;;;;;14.19;30.43;99275.84;4324660;33;34530;-91
2022/04/20 11:32:31;;;;;;;;;;;;;;;14.18;30.75;99280.22;4325807;33;33881;-89
2022/04/20 11:35:08;;;;;;;;;;;;;;;14.29;31.40;99269.41;4329826;33;33974;-88
2022/04/20 11:37:37;;;;;;;;;;;;;;;14.66;29.82;99266.34;4331151;33;32736;-89
2022/04/20 11:40:11;;;;;;;;;;;;;;;14.86;29.69;99263.00;4326312;33;34037;-88
2022/04/20 11:42:39;;;;;;;;;;;;;;;14.94;29.75;99260.94;4326570;33;33783;-90
2022/04/20 11:45:08;;;;;;;;;;;;;;;14.82;29.57;99261.41;4325333;33;33603;-89
2022/04/20 11:47:40;;;;;;;;;;;;;;;14.60;30.84;99261.34;4325961;33;32816;-89
2022/04/20 11:50:10;;;;;;;;;;;;;;;14.84;30.49;99256.16;4349673;32;34102;-90
2022/04/20 11:52:41;;;;;;;;;;;;;;;14.99;30.87;99260.78;4358320;32;33922;-90
2022/04/20 11:58:37;;;;;;;;;;;;;;;14.82;30.55;99257.97;4306648;33;33287;-88
2022/04/20 12:01:11;;;;;;;;;;;;;;;14.95;31.24;99269.63;4308188;33;32888;-90
2022/04/20 12:03:42;;;;;;;;;;;;;;;15.33;29.74;99255.09;4307432;33;33769;-87
2022/04/20 12:06:12;;;;;;;;;;;;;;;15.50;29.25;99258.81;4308600;33;33627;-90
2022/04/20 12:08:41;;;;;;;;;;;;;;;15.92;28.16;99255.34;4314289;33;33225;-89
2022/04/20 12:14:39;;;;;;;;;;;;;;;16.09;28.31;99247.66;4314607;33;35056;-89
2022/04/20 12:17:20;;;;;;;;;;;;;;;15.84;27.70;99254.84;4297441;33;33867;-88
2022/04/20 12:19:53;;;;;;;;;;;;;;;15.90;28.59;99247.59;4297574;33;33608;-88
2022/04/20 12:22:23;;;;;;;;;;;;;;;16.03;27.14;99242.69;4296922;33;34978;-88
2022/04/20 12:25:05;;;;;;;;;;;;;;;16.00;27.94;99237.59;4297153;33;35934;-89
2022/04/20 12:27:48;;;;;;;;;;;;;;;15.91;28.03;99243.19;4297821;33;33684;-87
2022/04/20 12:30:19;;;;;;;;;;;;;;;16.19;27.81;99235.88;4311368;33;33489;-87
2022/04/20 12:32:47;;;;;;;;;;;;;;;15.61;28.39;99237.44;4314040;33;33822;-88
2022/04/20 12:35:20;;;;;;;;;;;;;;;15.48;29.00;99237.94;4327612;32;33615;-87
2022/04/20 12:37:55;;;;;;;;;;;;;;;15.68;29.24;99229.31;4356949;32;34910;-88
2022/04/20 12:40:24;;;;;;;;;;;;;;;15.84;28.99;99229.53;4356014;32;32557;-88
2022/04/20 12:42:59;;;;;;;;;;;;;;;15.96;28.67;99231.63;4355890;32;34649;-88
2022/04/20 12:45:29;;;;;;;;;;;;;;;16.34;27.36;99229.13;4361149;32;34815;-89
2022/04/20 12:48:04;;;;;;;;;;;;;;;16.59;28.11;99225.41;4356840;32;34433;-87
2022/04/20 12:50:36;;;;;;;;;;;;;;;16.94;26.82;99229.06;4356253;32;33858;-86
2022/04/20 12:53:08;;;;;;;;;;;;;;;16.64;27.51;99229.50;4356686;32;35688;-89
2022/04/20 12:55:38;;;;;;;;;;;;;;;16.67;27.42;99223.25;4357695;32;34896;-88
2022/04/20 13:03:48;;;;;;;;;;;;;;;16.35;27.17;99222.94;4361034;32;33366;-88
2022/04/20 13:06:17;;;;;;;;;;;;;;;16.42;27.79;99231.37;4356584;32;34115;-89
2022/04/20 13:08:47;;;;;;;;;;;;;;;16.81;26.57;99226.13;4355878;32;33906;-89
2022/04/20 13:11:16;;;;;;;;;;;;;;;16.90;25.66;99224.03;4357240;32;31995;-89
2022/04/20 13:14:05;;;;;;;;;;;;;;;17.36;25.57;99216.59;4355976;32;34392;-88
2022/04/20 13:16:34;;;;;;;;;;;;;;;17.64;25.62;99213.47;4356453;32;34914;-89
2022/04/20 13:19:03;;;;;;;;;;;;;;;18.05;26.37;99206.16;4361515;32;34081;-89
2022/04/20 13:21:33;;;;;;;;;;;;;;;18.13;23.96;99203.97;4355363;32;33267;-89
2022/04/20 13:24:05;;;;;;;;;;;;;;;17.62;24.13;99207.44;4356613;32;33649;-89
2022/04/20 13:29:19;;;;;;;;;;;;;;;17.57;24.34;99196.34;4356621;32;33701;-88
2022/04/20 13:31:48;;;;;;;;;;;;;;;18.28;23.96;99186.56;4357798;32;33318;-89
2022/04/20 13:34:16;;;;;;;;;;;;;;;18.72;24.75;99203.50;4361815;32;34093;-89
2022/04/20 13:36:45;;;;;;;;;;;;;;;18.85;23.93;99196.69;4356052;32;35044;-89
2022/04/20 13:39:15;;;;;;;;;;;;;;;18.84;24.47;99199.38;4352980;32;33345;-88
2022/04/20 13:41:44;;;;;;;;;;;;;;;18.85;24.26;99190.59;4356468;32;33817;-88
2022/04/20 13:44:13;;;;;;;;;;;;;;;18.84;23.56;99205.47;4354839;32;34217;-89
2022/04/20 13:46:41;;;;;;;;;;;;;;;18.74;23.49;99199.84;4361697;32;34152;-89
2022/04/20 13:49:10;;;;;;;;;;;;;;;18.32;23.98;99203.03;4352513;32;34624;-88
2022/04/20 13:51:40;;;;;;;;;;;;;;;18.38;23.49;99201.84;4354159;32;33082;-88
2022/04/20 13:54:13;;;;;;;;;;;;;;;18.73;23.67;99192.91;4355223;32;34520;-88
2022/04/20 13:56:45;;;;;;;;;;;;;;;19.09;23.22;99201.50;4355043;32;33957;-88
2022/04/20 13:59:14;;;;;;;;;;;;;;;19.44;23.34;99196.88;4356769;32;34161;-89
2022/04/20 14:01:45;;;;;;;;;;;;;;;18.97;23.03;99201.25;4359141;32;31739;-89
2022/04/20 14:04:14;;;;;;;;;;;;;;;18.26;23.94;99200.69;4356689;32;33397;-90
2022/04/20 14:06:43;;;;;;;;;;;;;;;17.86;24.08;99203.63;4357905;32;34249;-89
2022/04/20 14:09:11;;;;;;;;;;;;;;;17.47;24.31;99206.44;4355886;32;33773;-90
2022/04/20 14:11:40;;;;;;;;;;;;;;;17.46;25.02;99202.94;4356680;32;32999;-89
2022/04/20 14:14:10;;;;;;;;;;;;;;;17.61;24.87;99206.56;4360951;32;34500;-89
2022/04/20 14:16:42;;;;;;;;;;;;;;;17.36;25.02;99211.34;4356023;32;32900;-90
2022/04/20 14:19:43;;;;;;;;;;;;;;;;;;;;;
2022/04/20 14:22:21;;;;;;;;;;;;;;;16.76;25.49;99204.50;4356321;32;34221;-89
2022/04/20 14:33:29;;;;;;;;;;;;;;;16.54;25.12;99204.66;4339626;32;33070;-90
2022/04/20 14:36:00;;;;;;;;;;;;;;;16.56;25.81;99204.59;4363460;32;34321;-90
2022/04/20 14:38:29;;;;;;;;;;;;;;;15.99;26.97;99209.69;4360289;32;33078;-91
2022/04/20 14:41:02;;;;;;;;;;;;;;;16.12;26.68;99203.03;4357620;32;33723;-88
2022/04/20 14:43:31;;;;;;;;;;;;;;;16.18;26.43;99208.00;4357273;32;33030;-89
2022/04/20 14:46:03;;;;;;;;;;;;;;;15.52;27.58;99196.84;4357956;32;34103;-91
2022/04/20 14:48:37;;;;;;;;;;;;;;;15.68;26.96;99216.22;4357385;32;32704;-89
2022/04/20 14:51:06;;;;;;;;;;;;;;;15.71;27.02;99223.97;4362299;32;34110;-89
2022/04/20 14:53:35;;;;;;;;;;;;;;;15.91;26.90;99219.66;4358003;32;33672;-89
2022/04/20 14:56:04;;;;;;;;;;;;;;;15.98;26.76;99218.47;4357198;32;33467;-89
2022/04/20 14:58:33;;;;;;;;;;;;;;;16.23;26.32;99212.19;4357449;32;34458;-91
2022/04/20 15:01:02;;;;;;;;;;;;;;;15.98;26.63;99221.09;4357898;32;33562;-88